Time;durP1;ratioP1;P1;durP2;ratioP2;P2;SDS_P1;SDS_P2;PMS_P1;PMS_P2;Temp;Humidity;BMP_temperature;BMP_pressure;BME280_temperature;BME280_humidity;BME280_pressure;Samples;Min_cycle;Max_cycle;Signal;HPM_P1;HPM_P2
2023/04/24 03:55:43;;;;;;;14.10;13.50;;;11.90;99.90;;;;;;6060885;23;20410;-76
2023/04/24 03:58:10;;;;;;;16.00;15.50;;;11.70;99.90;;;;;;4984753;28;20482;-76
2023/04/24 04:00:37;;;;;;;15.13;14.53;;;11.70;99.90;;;;;;4987819;28;20451;-74
2023/04/24 04:03:04;;;;;;;12.37;11.97;;;11.60;99.90;;;;;;4989977;28;20469;-76
2023/04/24 04:05:31;;;;;;;12.37;11.97;;;11.60;99.90;;;;;;4990415;28;20473;-77
2023/04/24 04:07:57;;;;;;;14.00;13.47;;;11.50;99.90;;;;;;4990391;28;20564;-78
2023/04/24 04:10:24;;;;;;;13.97;13.37;;;11.60;99.90;;;;;;4990451;28;20489;-76
2023/04/24 04:12:52;;;;;;;15.50;14.80;;;11.50;99.90;;;;;;4989967;28;20470;-76
2023/04/24 04:15:19;;;;;;;14.43;13.93;;;11.50;99.90;;;;;;4990004;28;20487;-77
2023/04/24 04:17:46;;;;;;;13.83;13.33;;;11.60;99.90;;;;;;4990059;28;20449;-77
2023/04/24 04:20:13;;;;;;;15.80;15.00;;;11.70;99.90;;;;;;4990185;28;20465;-79
2023/04/24 04:22:40;;;;;;;14.67;14.00;;;11.70;99.90;;;;;;4990059;28;20824;-78
2023/04/24 04:25:08;;;;;;;15.37;14.77;;;11.80;99.90;;;;;;4989835;28;20462;-78
2023/04/24 04:27:35;;;;;;;13.67;13.17;;;11.90;99.90;;;;;;4989724;28;20497;-78
2023/04/24 04:30:05;;;;;;;15.20;14.60;;;11.90;99.90;;;;;;4989754;28;20451;-78
2023/04/24 04:32:32;;;;;;;19.90;19.00;;;12.00;99.90;;;;;;4989637;28;20483;-74
2023/04/24 04:35:02;;;;;;;27.50;25.80;;;11.90;99.90;;;;;;4989457;28;20463;-70
2023/04/24 04:37:29;;;;;;;30.33;28.73;;;11.80;99.90;;;;;;4989428;28;20455;-72
2023/04/24 04:39:57;;;;;;;31.90;30.30;;;11.70;99.90;;;;;;4989342;28;20861;-73
2023/04/24 04:42:24;;;;;;;31.97;30.47;;;11.50;99.90;;;;;;4989411;28;20465;-74
2023/04/24 04:44:51;;;;;;;32.07;30.47;;;11.40;99.90;;;;;;4989335;28;20451;-75
2023/04/24 04:47:21;;;;;;;32.53;31.03;;;11.30;99.90;;;;;;4989357;28;20526;-73
2023/04/24 04:49:48;;;;;;;34.03;31.80;;;11.30;99.90;;;;;;4989271;28;20533;-73
2023/04/24 04:52:16;;;;;;;31.83;30.23;;;11.30;99.90;;;;;;4989659;28;20562;-73
2023/04/24 04:54:43;;;;;;;33.10;31.50;;;11.30;99.90;;;;;;4989761;28;20490;-74
2023/04/24 04:57:10;;;;;;;33.53;32.03;;;11.20;99.90;;;;;;4989378;28;20495;-74
2023/04/24 04:59:37;;;;;;;33.70;32.20;;;10.90;99.90;;;;;;4990588;28;20454;-75
2023/04/24 05:02:04;;;;;;;33.47;31.70;;;10.90;99.90;;;;;;4993340;28;21019;-74
2023/04/24 05:04:32;;;;;;;33.63;32.03;;;10.80;99.90;;;;;;4993340;28;20459;-74
2023/04/24 05:06:59;;;;;;;31.03;29.63;;;10.80;99.90;;;;;;4993554;28;20459;-75
2023/04/24 05:09:27;;;;;;;32.70;31.00;;;10.70;99.90;;;;;;4993529;28;20498;-76
2023/04/24 05:11:54;;;;;;;32.50;30.90;;;10.70;99.90;;;;;;4993235;28;20469;-76
2023/04/24 05:14:20;;;;;;;32.50;31.00;;;10.70;99.90;;;;;;4993095;28;21102;-75
2023/04/24 05:16:47;;;;;;;30.77;29.37;;;10.70;99.90;;;;;;4993361;28;20447;-75
2023/04/24 05:19:14;;;;;;;31.63;30.20;;;10.70;99.90;;;;;;4993394;28;20458;-74
2023/04/24 05:21:42;;;;;;;30.40;28.90;;;10.70;99.90;;;;;;4994312;28;20455;-76
2023/04/24 05:24:09;;;;;;;31.07;29.50;;;10.80;99.90;;;;;;4993998;28;20940;-76
2023/04/24 05:26:36;;;;;;;32.03;30.50;;;10.80;99.90;;;;;;4993932;28;20862;-76
2023/04/24 05:29:03;;;;;;;29.23;27.93;;;10.80;99.90;;;;;;4993860;28;21143;-77
2023/04/24 05:31:29;;;;;;;29.20;27.70;;;10.80;99.90;;;;;;4994183;28;20548;-76
2023/04/24 05:33:56;;;;;;;28.47;27.37;;;10.80;99.90;;;;;;4994071;28;20457;-77
2023/04/24 05:36:23;;;;;;;26.60;25.50;;;10.80;99.90;;;;;;4993722;28;20509;-77
2023/04/24 05:38:51;;;;;;;25.43;24.43;;;10.90;99.90;;;;;;4993751;28;21180;-75
2023/04/24 05:41:17;;;;;;;26.40;25.20;;;10.90;99.90;;;;;;4993881;28;20621;-75
2023/04/24 05:43:44;;;;;;;24.97;23.97;;;10.90;99.90;;;;;;4994143;28;20858;-75
2023/04/24 05:46:12;;;;;;;23.80;22.80;;;10.90;99.90;;;;;;4993861;28;20447;-76
2023/04/24 05:48:38;;;;;;;23.20;22.10;;;10.90;99.90;;;;;;4993838;28;20562;-76
2023/04/24 05:51:05;;;;;;;20.70;19.90;;;11.00;99.90;;;;;;4993735;28;20458;-77
2023/04/24 05:53:32;;;;;;;18.80;18.00;;;11.10;99.90;;;;;;4993636;28;20457;-76
2023/04/24 05:59:24;;;;;;;18.37;17.67;;;11.60;99.90;;;;;;4988220;28;20567;-76
2023/04/24 06:01:50;;;;;;;17.30;16.70;;;11.50;99.90;;;;;;4992509;28;20450;-76
2023/04/24 06:04:17;;;;;;;16.93;16.33;;;11.60;99.90;;;;;;4993451;28;20487;-76
2023/04/24 06:06:44;;;;;;;16.50;16.00;;;;;;;;;;4993690;28;20447;-76
2023/04/24 06:09:11;;;;;;;14.63;14.13;;;;;;;;;;4993365;28;20490;-77
2023/04/24 06:11:38;;;;;;;16.17;15.67;;;11.80;99.90;;;;;;4992537;28;20460;-76
2023/04/24 06:14:05;;;;;;;15.27;14.67;;;11.90;99.90;;;;;;4993190;28;20458;-76
2023/04/24 06:16:33;;;;;;;14.87;14.27;;;11.90;99.90;;;;;;4993040;28;21176;-76
2023/04/24 06:19:00;;;;;;;16.40;15.80;;;12.00;99.90;;;;;;4993279;28;20461;-76
2023/04/24 06:21:27;;;;;;;14.23;13.63;;;12.00;99.90;;;;;;4993147;28;20450;-75
2023/04/24 06:23:55;;;;;;;12.33;11.93;;;12.30;99.90;;;;;;4992933;28;20521;-75
2023/04/24 06:26:24;;;;;;;12.17;11.77;;;12.90;99.90;;;;;;4992745;28;20458;-75
2023/04/24 06:28:51;;;;;;;11.87;11.43;;;13.40;99.90;;;;;;4992718;28;20482;-76
2023/04/24 06:31:18;;;;;;;11.47;10.93;;;14.10;99.90;;;;;;4990816;28;20828;-76
2023/04/24 06:33:46;;;;;;;13.13;12.63;;;15.00;99.90;;;;;;4992479;28;20454;-76
2023/04/24 06:36:13;;;;;;;12.97;12.47;;;15.80;99.90;;;;;;4992610;28;20461;-80
2023/04/24 06:38:39;;;;;;;12.07;11.57;;;16.50;99.90;;;;;;4984994;28;20479;-82
2023/04/24 06:41:06;;;;;;;13.43;12.93;;;17.50;99.90;;;;;;4975381;28;20466;-83
2023/04/24 06:43:33;;;;;;;13.63;13.00;;;17.50;99.90;;;;;;4992564;28;20900;-83
2023/04/24 06:46:03;;;;;;;13.77;13.00;;;18.30;99.90;;;;;;4986995;28;20448;-84
2023/04/24 06:48:29;;;;;;;13.30;12.70;;;18.40;99.90;;;;;;4972533;28;20491;-84
2023/04/24 06:50:57;;;;;;;12.40;11.93;;;18.30;99.90;;;;;;4972731;28;20460;-84
2023/04/24 06:53:25;;;;;;;14.17;13.00;;;18.40;99.90;;;;;;4970952;28;20455;-83
2023/04/24 06:55:52;;;;;;;13.07;12.57;;;18.50;98.50;;;;;;4972621;28;20475;-84
2023/04/24 06:58:18;;;;;;;12.33;11.83;;;18.30;98.10;;;;;;4973390;28;20484;-86
2023/04/24 07:00:45;;;;;;;13.10;12.50;;;18.60;99.60;;;;;;4973484;28;20455;-82
2023/04/24 07:03:12;;;;;;;13.13;12.63;;;19.10;99.90;;;;;;4970870;28;20464;-83
2023/04/24 07:05:38;;;;;;;13.50;12.97;;;19.60;94.80;;;;;;4971769;28;20452;-80
2023/04/24 07:08:08;;;;;;;12.17;11.77;;;19.00;96.00;;;;;;4971702;28;20843;-80
2023/04/24 07:10:35;;;;;;;12.00;11.60;;;18.60;97.70;;;;;;4973591;28;20451;-86
2023/04/24 07:13:02;;;;;;;13.10;12.50;;;19.10;95.20;;;;;;4972517;28;20451;-87
2023/04/24 07:15:28;;;;;;;11.97;11.57;;;18.40;95.80;;;;;;4977381;28;20460;-87
2023/04/24 07:17:55;;;;;;;13.30;12.70;;;18.30;95.80;;;;;;4975176;28;20454;-87
2023/04/24 07:20:22;;;;;;;12.57;12.07;;;17.70;95.50;;;;;;4983905;28;20463;-85
2023/04/24 07:22:49;;;;;;;11.60;11.20;;;17.20;96.30;;;;;;4980617;28;20448;-83
2023/04/24 07:25:17;;;;;;;12.20;11.70;;;16.60;98.90;;;;;;4986754;28;20459;-85
2023/04/24 07:27:44;;;;;;;13.10;12.50;;;15.90;99.50;;;;;;4989978;28;20450;-84
2023/04/24 07:30:11;;;;;;;12.40;11.90;;;15.70;99.90;;;;;;4995501;28;20447;-82
2023/04/24 07:32:38;;;;;;;12.67;12.20;;;15.30;99.90;;;;;;4991587;28;20424;-85
2023/04/24 07:35:06;;;;;;;12.80;12.23;;;15.10;99.90;;;;;;4979843;28;20595;-83
2023/04/24 07:37:32;;;;;;;11.90;11.50;;;14.90;99.90;;;;;;4975382;28;20447;-82
2023/04/24 07:39:59;;;;;;;12.30;11.60;;;14.90;99.90;;;;;;4977815;28;20455;-82
2023/04/24 07:42:27;;;;;;;11.80;11.30;;;15.00;99.90;;;;;;4975166;28;20467;-81
2023/04/24 07:44:54;;;;;;;11.00;10.70;;;15.20;99.90;;;;;;4980404;28;20443;-82
2023/04/24 07:47:20;;;;;;;12.27;11.77;;;15.50;98.40;;;;;;4978387;28;20864;-81
2023/04/24 07:49:47;;;;;;;11.50;11.10;;;16.00;96.90;;;;;;4976883;28;20494;-83
2023/04/24 07:52:14;;;;;;;11.80;11.20;;;16.80;96.20;;;;;;4971635;28;20460;-83
2023/04/24 07:54:40;;;;;;;12.83;11.70;;;17.10;95.20;;;;;;4971694;28;20471;-83
2023/04/24 07:57:08;;;;;;;11.23;10.83;;;16.40;93.40;;;;;;4971111;28;20459;-83
2023/04/24 07:59:36;;;;;;;11.80;11.40;;;16.60;95.40;;;;;;4971476;28;20498;-83
2023/04/24 08:02:02;;;;;;;11.80;11.30;;;17.50;93.10;;;;;;4971193;28;20463;-84
2023/04/24 08:04:29;;;;;;;11.67;10.97;;;18.10;90.70;;;;;;4971745;28;20451;-83
2023/04/24 08:06:56;;;;;;;10.60;10.10;;;18.10;89.60;;;;;;4971723;28;20462;-85
2023/04/24 08:09:22;;;;;;;11.07;10.67;;;17.50;90.30;;;;;;4971259;28;20491;-85
2023/04/24 08:11:49;;;;;;;11.07;10.67;;;17.40;91.50;;;;;;4971027;28;20452;-85
2023/04/24 08:14:16;;;;;;;11.57;11.17;;;17.40;91.10;;;;;;4971067;28;20538;-84
2023/04/24 08:16:44;;;;;;;11.70;11.20;;;17.40;90.80;;;;;;4971417;28;20467;-85
2023/04/24 08:19:11;;;;;;;11.23;10.63;;;16.90;90.40;;;;;;4971152;28;20456;-85
2023/04/24 08:21:37;;;;;;;11.77;11.07;;;16.40;91.00;;;;;;4971099;28;20456;-85
2023/04/24 08:24:07;;;;;;;11.17;10.57;;;16.30;91.60;;;;;;4971144;28;20459;-86
2023/04/24 08:26:35;;;;;;;11.40;10.80;;;17.20;97.30;;;;;;4970783;28;20701;-85
2023/04/24 08:29:02;;;;;;;11.37;10.63;;;17.20;89.80;;;;;;4970872;28;21012;-86
2023/04/24 08:31:28;;;;;;;11.00;10.60;;;17.00;89.50;;;;;;4971016;28;20542;-86
2023/04/24 08:33:57;;;;;;;10.70;10.30;;;17.00;90.10;;;;;;4970774;28;20459;-87
2023/04/24 08:36:23;;;;;;;10.63;10.33;;;17.40;88.10;;;;;;4970713;28;20462;-85
2023/04/24 08:38:50;;;;;;;10.63;10.23;;;17.30;88.70;;;;;;4971101;28;20452;-84
2023/04/24 08:41:18;;;;;;;10.33;9.97;;;17.10;89.20;;;;;;4970753;28;20452;-85
2023/04/24 08:43:46;;;;;;;11.43;11.03;;;17.10;89.40;;;;;;4971209;28;20474;-84
2023/04/24 08:46:16;;;;;;;12.80;12.07;;;16.90;88.90;;;;;;4971055;28;20448;-85
2023/04/24 08:48:43;;;;;;;12.23;11.63;;;16.90;89.00;;;;;;4971218;28;20494;-84
2023/04/24 08:51:11;;;;;;;11.17;10.67;;;16.90;90.20;;;;;;4970751;28;20823;-84
2023/04/24 08:53:38;;;;;;;11.30;10.70;;;17.00;88.40;;;;;;4970616;28;20456;-85
2023/04/24 08:56:42;;;;;;;11.67;11.17;;;15.70;93.40;;;;;;5008150;23;21010;-88
2023/04/24 08:59:15;;;;;;;11.57;11.10;;;15.20;93.40;;;;;;5009534;28;20981;-85
2023/04/24 09:01:48;;;;;;;12.13;11.73;;;15.10;94.30;;;;;;5009832;28;20456;-84
2023/04/24 09:04:26;;;;;;;;;;;;;;;;;;;;;
2023/04/24 09:07:12;;;;;;;11.40;10.90;;;15.80;92.50;;;;;;5008156;28;20819;-85
2023/04/24 09:13:12;;;;;;;12.67;12.07;;;;;;;;;;4983781;28;20462;-84
2023/04/24 09:15:39;;;;;;;10.80;10.40;;;15.90;91.60;;;;;;5009517;28;20472;-84
2023/04/24 09:18:08;;;;;;;12.13;11.53;;;;;;;;;;5009359;28;20452;-84
2023/04/24 09:20:35;;;;;;;12.07;11.57;;;;;;;;;;5009156;28;20790;-84
2023/04/24 09:23:07;;;;;;;11.63;10.90;;;;;;;;;;5009237;28;20445;-83
2023/04/24 09:26:37;;;;;;;13.60;13.00;;;14.90;94.50;;;;;;5009203;28;20449;-85
2023/04/24 09:29:10;;;;;;;11.47;11.07;;;;;;;;;;4886985;29;20576;-85
2023/04/24 09:31:40;;;;;;;11.30;10.90;;;;;;;;;;4982755;28;20452;-84
2023/04/24 09:34:07;;;;;;;11.43;10.90;;;;;;;;;;5009179;28;20450;-84
2023/04/24 09:36:57;;;;;;;11.63;11.23;;;14.30;99.00;;;;;;5009032;28;20693;-85
2023/04/24 09:42:52;;;;;;;10.77;10.27;;;14.40;99.90;;;;;;5009280;28;20400;-83
2023/04/24 09:45:19;;;;;;;12.20;11.80;;;14.40;99.90;;;;;;5009293;28;20850;-84
2023/04/24 09:47:45;;;;;;;11.23;10.73;;;14.70;99.90;;;;;;5012063;28;20458;-84
2023/04/24 09:50:17;;;;;;;11.90;11.30;;;15.10;98.90;;;;;;5012961;28;20493;-84
2023/04/24 09:52:45;;;;;;;10.33;10.03;;;15.50;97.70;;;;;;5012843;28;20958;-84
2023/04/24 09:55:12;;;;;;;10.70;10.30;;;;;;;;;;5018987;23;20493;-83
2023/04/24 09:58:10;;;;;;;;;;;;;;;;;;;;;
2023/04/24 10:00:37;;;;;;;10.80;10.40;;;;;;;;;;5012509;28;20450;-83
2023/04/24 10:03:06;;;;;;;11.00;10.50;;;17.90;90.50;;;;;;5012658;28;20504;-84
2023/04/24 10:05:34;;;;;;;12.10;11.57;;;17.50;89.30;;;;;;5012231;28;20632;-84
2023/04/24 10:08:04;;;;;;;12.00;11.50;;;16.80;90.20;;;;;;5012537;28;20454;-84
2023/04/24 10:10:31;;;;;;;10.87;10.47;;;16.20;91.60;;;;;;5013276;28;20499;-83
2023/04/24 10:13:00;;;;;;;9.90;9.60;;;15.80;91.40;;;;;;5012983;28;20461;-83
2023/04/24 10:15:27;;;;;;;10.60;10.20;;;16.10;91.60;;;;;;5012480;28;20453;-84
2023/04/24 10:17:54;;;;;;;11.03;10.53;;;15.90;99.90;;;;;;5012222;28;20453;-84
2023/04/24 10:20:22;;;;;;;11.10;10.47;;;16.00;90.30;;;;;;5012267;28;20936;-84
2023/04/24 10:22:51;;;;;;;11.20;10.70;;;16.10;89.10;;;;;;5012703;28;20453;-84
2023/04/24 10:25:19;;;;;;;10.10;9.80;;;16.20;87.50;;;;;;5012099;28;20490;-85
2023/04/24 10:27:47;;;;;;;11.20;10.80;;;19.60;74.70;;;;;;5016789;28;20477;-83
2023/04/24 10:30:16;;;;;;;10.53;10.23;;;19.60;75.30;;;;;;5031362;28;20493;-85
2023/04/24 10:32:43;;;;;;;11.50;11.10;;;20.10;71.30;;;;;;5031709;28;20456;-84
2023/04/24 10:35:10;;;;;;;12.43;12.03;;;20.00;68.70;;;;;;5033476;28;20452;-89
2023/04/24 10:37:39;;;;;;;12.73;12.23;;;20.30;68.20;;;;;;5032342;28;20468;-88
2023/04/24 10:40:08;;;;;;;11.50;11.10;;;20.20;68.80;;;;;;5030140;28;20456;-88
2023/04/24 10:42:35;;;;;;;11.30;10.80;;;19.80;66.20;;;;;;5031514;28;20499;-86
2023/04/24 10:45:06;;;;;;;11.50;11.10;;;18.60;66.80;;;;;;5031628;28;20480;-88
2023/04/24 10:47:42;;;;;;;11.90;11.40;;;17.90;70.50;;;;;;5031491;28;20461;-86
2023/04/24 10:50:10;;;;;;;11.23;10.93;;;16.60;91.50;;;;;;5031217;28;20480;-88
2023/04/24 10:52:46;;;;;;;12.20;11.70;;;16.60;74.40;;;;;;5032672;28;20461;-88
2023/04/24 10:55:14;;;;;;;11.30;10.80;;;16.30;76.50;;;;;;5031857;28;20488;-86
2023/04/24 10:58:05;;;;;;;10.60;10.30;;;15.90;78.30;;;;;;5031363;28;20915;-87
2023/04/24 11:00:31;;;;;;;10.83;10.23;;;15.80;79.50;;;;;;5031468;28;20466;-87
2023/04/24 11:02:59;;;;;;;10.83;10.43;;;15.80;80.90;;;;;;5031532;28;20461;-88
2023/04/24 11:05:51;;;;;;;10.47;10.13;;;15.80;81.30;;;;;;5031727;28;20464;-88
2023/04/24 11:08:27;;;;;;;12.30;11.90;;;15.80;81.70;;;;;;5031331;28;20974;-87
2023/04/24 11:11:00;;;;;;;11.83;11.23;;;16.10;81.40;;;;;;5031059;28;20527;-88
2023/04/24 11:13:28;;;;;;;11.63;11.23;;;15.90;81.00;;;;;;5031407;28;20485;-88
2023/04/24 11:16:14;;;;;;;11.50;11.10;;;15.80;81.50;;;;;;5031321;28;20476;-87
2023/04/24 11:18:45;;;;;;;10.43;10.13;;;15.50;83.90;;;;;;5032215;28;21144;-88
2023/04/24 11:21:12;;;;;;;10.87;10.47;;;15.30;85.50;;;;;;5033419;28;20480;-88
2023/04/24 11:23:39;;;;;;;12.20;11.70;;;15.00;85.30;;;;;;5032469;28;20484;-87
2023/04/24 11:26:14;;;;;;;10.30;10.00;;;14.90;86.50;;;;;;5030958;28;20456;-88
2023/04/24 11:28:46;;;;;;;10.73;10.13;;;15.00;86.50;;;;;;5031115;28;20856;-87
2023/04/24 11:31:35;;;;;;;9.63;9.33;;;15.10;87.10;;;;;;5031207;28;20536;-86
2023/04/24 11:34:08;;;;;;;11.50;11.10;;;15.40;86.10;;;;;;5029050;28;20445;-87
2023/04/24 11:36:36;;;;;;;10.40;10.00;;;15.50;85.60;;;;;;5029497;28;20449;-87
2023/04/24 11:39:03;;;;;;;11.20;10.80;;;16.00;84.10;;;;;;5030822;28;20449;-88
2023/04/24 11:41:30;;;;;;;11.90;11.50;;;16.30;82.40;;;;;;5030799;28;20467;-86
2023/04/24 11:43:57;;;;;;;12.77;12.37;;;16.40;82.00;;;;;;5031268;28;20507;-87
2023/04/24 11:46:28;;;;;;;13.03;12.53;;;16.60;81.90;;;;;;5031221;28;20451;-86
2023/04/24 11:48:55;;;;;;;11.00;10.50;;;16.80;79.20;;;;;;5034961;28;20457;-88
2023/04/24 11:51:25;;;;;;;10.20;9.80;;;16.50;79.50;;;;;;5034635;28;20461;-88
2023/04/24 11:53:52;;;;;;;10.63;10.10;;;16.20;81.80;;;;;;5035880;28;20560;-87
2023/04/24 11:56:19;;;;;;;10.60;10.00;;;16.10;81.80;;;;;;5030517;28;20487;-85
2023/04/24 11:58:47;;;;;;;12.00;10.97;;;15.90;83.10;;;;;;5030239;28;20461;-86
2023/04/24 12:01:13;;;;;;;10.50;10.10;;;15.40;84.70;;;;;;5030546;28;20449;-85
2023/04/24 12:03:42;;;;;;;10.10;9.80;;;15.00;85.70;;;;;;5030692;28;20531;-79
2023/04/24 12:06:11;;;;;;;11.60;11.20;;;14.80;87.20;;;;;;5031630;28;20961;-82
2023/04/24 12:08:39;;;;;;;10.70;10.30;;;14.70;88.50;;;;;;5026111;28;20492;-83
2023/04/24 12:11:07;;;;;;;11.93;10.90;;;15.20;87.50;;;;;;5035220;28;20484;-84
2023/04/24 12:13:35;;;;;;;10.50;9.97;;;16.10;85.10;;;;;;5055442;28;20438;-85
2023/04/24 12:16:04;;;;;;;12.17;11.17;;;17.20;83.50;;;;;;5055868;28;20431;-85
2023/04/24 12:18:31;;;;;;;11.80;11.40;;;17.80;79.50;;;;;;5055561;28;20459;-84
2023/04/24 12:21:16;;;;;;;10.90;10.50;;;18.10;79.40;;;;;;5039165;28;20469;-86
2023/04/24 12:23:45;;;;;;;11.00;10.60;;;18.40;77.90;;;;;;5008249;28;20493;-84
2023/04/24 12:26:12;;;;;;;12.53;11.93;;;17.70;77.10;;;;;;5005163;28;20445;-84
2023/04/24 12:28:39;;;;;;;12.63;12.03;;;17.20;79.40;;;;;;4992234;28;20450;-84
2023/04/24 12:31:07;;;;;;;10.47;10.10;;;16.80;78.80;;;;;;4990029;28;20494;-84
2023/04/24 12:33:35;;;;;;;11.40;11.00;;;16.50;81.30;;;;;;4990423;28;20450;-85
2023/04/24 12:36:02;;;;;;;11.47;10.87;;;16.00;82.80;;;;;;4990015;28;20851;-84
2023/04/24 12:38:30;;;;;;;12.40;11.80;;;15.70;83.70;;;;;;4990348;28;20804;-83
2023/04/24 12:41:05;;;;;;;10.47;10.07;;;16.00;83.90;;;;;;4990189;28;20509;-83
2023/04/24 12:43:32;;;;;;;10.80;10.40;;;15.80;82.70;;;;;;4995170;28;20465;-84
2023/04/24 12:45:59;;;;;;;11.50;11.10;;;15.70;81.60;;;;;;4992227;28;20454;-83
2023/04/24 12:48:26;;;;;;;11.43;11.03;;;15.20;81.70;;;;;;4990349;28;20589;-82
2023/04/24 12:50:53;;;;;;;9.70;9.40;;;15.30;82.50;;;;;;4994762;28;20510;-82
2023/04/24 12:53:20;;;;;;;9.80;9.50;;;16.10;81.60;;;;;;5009659;28;20452;-82
2023/04/24 12:55:52;;;;;;;11.73;11.23;;;16.40;80.20;;;;;;5009143;28;20987;-82
2023/04/24 12:58:20;;;;;;;11.00;10.70;;;16.30;80.00;;;;;;5009512;28;20739;-82
2023/04/24 13:00:47;;;;;;;10.63;10.13;;;16.30;80.60;;;;;;4988457;28;20885;-82
2023/04/24 13:03:14;;;;;;;10.60;10.20;;;15.80;80.50;;;;;;4990073;28;20457;-82
2023/04/24 13:05:41;;;;;;;10.50;10.07;;;15.40;82.20;;;;;;4999646;28;20466;-82
2023/04/24 13:08:08;;;;;;;9.73;9.43;;;15.30;84.30;;;;;;4994036;28;20964;-82
2023/04/24 13:10:35;;;;;;;10.37;9.97;;;15.10;85.40;;;;;;5009269;28;20488;-83
2023/04/24 13:13:02;;;;;;;12.20;11.80;;;14.90;87.30;;;;;;4999882;28;20443;-74
2023/04/24 13:15:30;;;;;;;16.20;15.50;;;14.60;91.80;;;;;;4989796;28;20928;-75
2023/04/24 13:17:57;;;;;;;30.50;29.00;;;14.00;99.90;;;;;;4990256;28;20502;-74
2023/04/24 13:20:23;;;;;;;33.70;32.20;;;13.30;99.90;;;;;;4990949;28;20451;-75
2023/04/24 13:22:50;;;;;;;30.70;29.50;;;13.30;99.90;;;;;;5013328;28;20453;-77
2023/04/24 13:25:17;;;;;;;29.00;27.80;;;13.50;99.90;;;;;;5001442;28;20455;-77
2023/04/24 13:27:44;;;;;;;25.77;24.77;;;14.00;99.90;;;;;;4991854;28;20663;-77
2023/04/24 13:30:12;;;;;;;18.20;17.57;;;14.50;99.90;;;;;;4993549;28;20489;-77
2023/04/24 13:32:40;;;;;;;15.00;14.50;;;14.80;99.90;;;;;;4993493;28;20975;-77
2023/04/24 13:35:07;;;;;;;13.80;13.30;;;14.80;99.90;;;;;;4993198;28;20956;-77
2023/04/24 13:37:34;;;;;;;14.50;14.00;;;15.50;99.90;;;;;;4993317;28;20450;-81
2023/04/24 13:40:00;;;;;;;13.60;13.10;;;16.00;99.90;;;;;;4993533;28;20446;-82
2023/04/24 13:42:27;;;;;;;13.37;12.97;;;16.70;99.90;;;;;;4994417;28;20463;-84
2023/04/24 13:45:04;;;;;;;12.83;12.43;;;16.70;98.50;;;;;;4996217;28;20446;-85
2023/04/24 13:47:30;;;;;;;11.20;10.80;;;16.40;97.50;;;;;;5003166;28;20454;-86
2023/04/24 13:49:58;;;;;;;11.27;10.87;;;16.30;99.60;;;;;;4997066;28;20557;-82
2023/04/24 13:52:25;;;;;;;12.80;12.00;;;15.80;99.90;;;;;;4994970;28;20953;-85
2023/04/24 13:54:52;;;;;;;11.60;11.20;;;15.20;99.30;;;;;;4993352;28;20872;-78
2023/04/24 13:57:19;;;;;;;17.10;16.50;;;14.60;99.90;;;;;;4993071;28;20730;-73
2023/04/24 13:59:46;;;;;;;21.30;20.50;;;14.00;99.90;;;;;;4993079;28;20458;-74
2023/04/24 14:02:13;;;;;;;24.80;23.80;;;13.00;99.90;;;;;;4993189;28;20450;-74
2023/04/24 14:04:40;;;;;;;30.43;28.70;;;12.40;99.90;;;;;;4992954;28;20948;-75
2023/04/24 14:07:08;;;;;;;30.77;29.47;;;11.90;99.90;;;;;;4993080;28;20447;-77
2023/04/24 14:09:35;;;;;;;31.90;30.50;;;11.70;99.90;;;;;;4994917;28;20818;-81
2023/04/24 14:12:03;;;;;;;30.93;29.53;;;11.70;99.90;;;;;;4992963;28;20494;-83
2023/04/24 14:14:30;;;;;;;30.00;28.70;;;11.90;99.90;;;;;;4993542;28;20454;-81
2023/04/24 14:16:56;;;;;;;29.07;27.87;;;12.30;99.90;;;;;;4992957;28;20513;-82
2023/04/24 14:19:23;;;;;;;23.73;22.83;;;12.80;99.90;;;;;;4992713;28;20458;-81
2023/04/24 14:21:50;;;;;;;19.00;18.40;;;13.20;99.90;;;;;;4993005;28;20451;-80
2023/04/24 14:24:18;;;;;;;16.40;15.80;;;13.70;99.90;;;;;;4992773;28;20580;-79
2023/04/24 14:26:45;;;;;;;16.50;15.90;;;13.60;99.90;;;;;;4992828;28;20446;-77
2023/04/24 14:29:11;;;;;;;14.10;13.60;;;13.60;99.90;;;;;;4992560;28;20447;-77
2023/04/24 14:31:38;;;;;;;14.57;13.97;;;14.50;99.90;;;;;;4992117;28;20486;-76
2023/04/24 14:34:05;;;;;;;12.60;12.00;;;15.20;99.90;;;;;;4992389;28;20451;-77
2023/04/24 14:36:32;;;;;;;14.60;13.87;;;15.00;99.90;;;;;;5000774;28;20466;-77
2023/04/24 14:38:58;;;;;;;13.77;13.27;;;14.70;99.90;;;;;;5003726;28;20477;-78
2023/04/24 14:41:26;;;;;;;12.40;11.93;;;14.50;99.90;;;;;;5003544;28;20443;-80
2023/04/24 14:43:53;;;;;;;11.73;11.33;;;14.40;99.90;;;;;;5000437;28;20439;-82
2023/04/24 14:46:21;;;;;;;10.90;10.43;;;14.40;99.90;;;;;;5002194;28;20445;-84
2023/04/24 14:48:47;;;;;;;12.03;11.63;;;14.30;99.90;;;;;;5003024;28;20439;-85
2023/04/24 14:51:14;;;;;;;12.63;12.13;;;14.10;99.90;;;;;;5010227;28;20492;-86
2023/04/24 14:53:41;;;;;;;13.43;12.93;;;14.10;99.90;;;;;;5024719;28;20437;-88
2023/04/24 15:04:48;;;;;;;10.23;9.83;;;14.40;99.90;;;;;;4984317;28;20937;-88
2023/04/24 15:07:15;;;;;;;12.20;11.70;;;15.00;99.90;;;;;;4976371;28;20451;-86
2023/04/24 15:09:42;;;;;;;10.90;10.50;;;15.40;99.90;;;;;;4973063;28;20460;-79
2023/04/24 15:12:09;;;;;;;9.70;9.40;;;15.50;99.90;;;;;;4972771;28;20488;-82
2023/04/24 15:30:19;;;;;;;11.53;11.10;;;14.30;99.90;;;;;;5402139;23;20485;-85
2023/04/24 15:32:54;;;;;;;11.00;10.60;;;;;;;;;;5034250;28;20441;-86
2023/04/24 15:35:21;;;;;;;11.63;11.23;;;;;;;;;;5023694;28;20456;-85
2023/04/24 15:37:48;;;;;;;11.00;10.50;;;;;;;;;;5030489;28;20445;-84
2023/04/24 15:40:16;;;;;;;10.70;10.30;;;;;;;;;;5030765;28;20544;-84
2023/04/24 15:42:43;;;;;;;10.83;10.43;;;;;;;;;;5031104;28;20471;-84
2023/04/24 15:48:28;;;;;;;21.47;20.10;;;13.40;99.90;;;;;;5018682;28;20452;-73
2023/04/24 15:50:55;;;;;;;32.40;31.00;;;13.10;99.90;;;;;;5030058;28;20485;-75
2023/04/24 15:53:21;;;;;;;33.40;31.90;;;12.30;99.90;;;;;;5030197;28;20485;-75
2023/04/24 15:55:48;;;;;;;32.37;30.87;;;11.90;99.90;;;;;;5045447;28;20472;-77
2023/04/24 15:58:15;;;;;;;33.20;31.80;;;12.00;99.90;;;;;;5050275;28;20455;-78
2023/04/24 16:00:41;;;;;;;32.50;31.00;;;12.10;99.90;;;;;;5050333;28;20440;-79
2023/04/24 16:03:08;;;;;;;28.70;27.57;;;12.10;99.90;;;;;;5049892;28;20515;-79
2023/04/24 16:05:36;;;;;;;28.87;27.67;;;11.90;99.90;;;;;;5050090;28;20448;-81
2023/04/24 16:08:03;;;;;;;26.47;25.47;;;11.80;99.90;;;;;;5050089;28;20452;-80
2023/04/24 16:10:29;;;;;;;24.13;23.10;;;11.70;99.90;;;;;;5050000;28;20495;-79
2023/04/24 16:12:57;;;;;;;19.27;18.57;;;11.70;99.90;;;;;;5050190;28;20809;-77
2023/04/24 16:15:23;;;;;;;16.67;16.00;;;11.70;99.90;;;;;;5050060;28;20957;-77
2023/04/24 16:17:50;;;;;;;15.93;15.40;;;11.70;99.90;;;;;;5049786;28;20456;-78
2023/04/24 16:20:17;;;;;;;13.73;13.23;;;11.80;99.90;;;;;;5049759;28;20480;-78
2023/04/24 16:22:45;;;;;;;13.70;13.20;;;11.70;99.90;;;;;;5044608;28;20488;-78
2023/04/24 16:25:12;;;;;;;15.60;14.80;;;11.70;99.90;;;;;;5049575;28;20456;-77
2023/04/24 16:27:39;;;;;;;15.30;14.60;;;11.80;99.90;;;;;;5049338;28;20556;-78
2023/04/24 16:30:07;;;;;;;16.37;15.70;;;12.00;99.90;;;;;;5049062;28;20784;-79
2023/04/24 16:32:34;;;;;;;13.83;13.33;;;12.10;99.90;;;;;;5049267;28;20480;-80
2023/04/24 16:35:00;;;;;;;12.97;12.47;;;12.00;99.90;;;;;;5049832;28;20484;-82
2023/04/24 16:37:28;;;;;;;14.00;13.50;;;12.10;99.90;;;;;;5049929;28;20451;-82
2023/04/24 16:39:56;;;;;;;14.27;13.77;;;12.00;99.90;;;;;;5049855;28;20458;-83
2023/04/24 16:42:23;;;;;;;13.00;12.50;;;12.00;99.90;;;;;;5049821;28;20877;-84
2023/04/24 16:44:50;;;;;;;12.67;12.17;;;12.00;99.90;;;;;;5049515;28;20448;-85
2023/04/24 16:47:17;;;;;;;11.47;11.07;;;12.10;99.90;;;;;;5050852;28;20750;-86
2023/04/24 16:49:44;;;;;;;14.87;14.17;;;12.20;99.90;;;;;;5063960;28;20460;-87
2023/04/24 16:52:12;;;;;;;13.23;12.73;;;12.40;99.90;;;;;;5064237;28;20486;-88
2023/04/24 16:54:39;;;;;;;12.87;12.43;;;12.50;99.90;;;;;;5061724;28;20464;-87
2023/04/24 16:57:07;;;;;;;11.77;11.37;;;12.60;99.90;;;;;;5052312;28;20673;-81
2023/04/24 16:59:34;;;;;;;11.40;10.60;;;12.80;99.90;;;;;;5056265;28;20456;-87
2023/04/24 17:02:01;;;;;;;12.17;11.67;;;12.90;99.90;;;;;;5051580;28;20451;-85
2023/04/24 17:04:28;;;;;;;12.83;12.30;;;13.10;99.90;;;;;;5057083;28;20456;-86
2023/04/24 17:06:55;;;;;;;11.57;11.07;;;13.20;99.90;;;;;;5054490;28;20447;-85
2023/04/24 17:09:22;;;;;;;12.20;11.50;;;13.30;99.90;;;;;;5061621;28;20455;-87
2023/04/24 17:11:49;;;;;;;12.70;12.20;;;13.40;99.90;;;;;;5054821;28;20479;-86
2023/04/24 17:14:18;;;;;;;11.57;11.00;;;13.50;99.90;;;;;;5051194;28;20487;-86